Time;durP1;ratioP1;P1;durP2;ratioP2;P2;SDS_P1;SDS_P2;PMS_P1;PMS_P2;Temp;Humidity;BMP_temperature;BMP_pressure;BME280_temperature;BME280_humidity;BME280_pressure;Samples;Min_cycle;Max_cycle;Signal;HPM_P1;HPM_P2
2022/06/02 00:00:24;;;;;;;1999.90;999.90;;;7.00;99.90;;;;;;5065784;28;20407;-77
2022/06/02 00:03:12;;;;;;;1999.90;999.90;;;6.90;99.90;;;;;;5065507;28;20151;-77
2022/06/02 00:05:51;;;;;;;1999.90;999.90;;;7.00;99.90;;;;;;5047854;28;20079;-77
2022/06/02 00:09:00;;;;;;;1999.90;999.90;;;7.00;99.90;;;;;;5064229;28;20441;-77
2022/06/02 00:11:41;;;;;;;1999.90;999.90;;;6.90;99.90;;;;;;5060570;28;20043;-77
2022/06/02 00:14:11;;;;;;;1999.90;999.90;;;6.90;99.90;;;;;;5045535;28;20047;-77
2022/06/02 00:17:07;;;;;;;1999.90;999.90;;;6.90;99.90;;;;;;5042024;28;20048;-77
2022/06/02 00:19:51;;;;;;;1999.90;999.90;;;6.90;99.90;;;;;;5039807;28;20102;-77
2022/06/02 00:22:32;;;;;;;1999.90;999.90;;;6.90;99.90;;;;;;5045547;28;20063;-77
2022/06/02 00:25:10;;;;;;;1999.90;999.90;;;6.90;99.90;;;;;;5055496;28;20064;-77
2022/06/02 00:27:51;;;;;;;1999.90;999.90;;;6.90;99.90;;;;;;5053336;28;20127;-77
2022/06/02 00:30:43;;;;;;;1999.90;999.90;;;6.90;99.90;;;;;;5055201;28;20049;-77
2022/06/02 00:33:12;;;;;;;1999.90;999.90;;;6.90;99.90;;;;;;5024502;28;20588;-77
2022/06/02 00:35:42;;;;;;;1999.90;999.90;;;6.90;99.90;;;;;;5051103;28;20060;-77
2022/06/02 00:38:20;;;;;;;1999.90;999.90;;;6.80;99.90;;;;;;5053015;28;20052;-77
2022/06/02 00:40:46;;;;;;;1999.90;999.90;;;6.70;99.90;;;;;;5020691;28;20048;-77
2022/06/02 00:43:18;;;;;;;1999.90;999.90;;;6.70;99.90;;;;;;5050732;28;20043;-77
2022/06/02 00:45:45;;;;;;;1999.90;999.90;;;6.70;99.90;;;;;;5031226;28;20044;-77
2022/06/02 00:48:28;;;;;;;1999.90;999.90;;;6.60;99.90;;;;;;5054103;28;20123;-77
2022/06/02 00:51:02;;;;;;;1999.90;999.90;;;6.60;99.90;;;;;;5049498;28;20036;-77
2022/06/02 00:57:30;;;;;;;1999.90;999.90;;;6.50;99.90;;;;;;5052023;28;20076;-77
2022/06/02 00:59:34;;;;;;;1999.90;999.90;;;6.60;99.90;;;;;;5047760;28;20048;-77
2022/06/02 01:02:01;;;;;;;1999.90;999.90;;;6.60;99.90;;;;;;5047742;28;20432;-77
2022/06/02 01:04:27;;;;;;;1999.90;999.90;;;6.50;99.90;;;;;;5046612;28;20422;-77
2022/06/02 01:07:11;;;;;;;1999.90;999.90;;;6.50;99.90;;;;;;5053571;28;20044;-77
2022/06/02 01:10:14;;;;;;;1999.90;999.90;;;6.50;99.90;;;;;;5034323;28;20037;-77
2022/06/02 01:13:30;;;;;;;1999.90;999.90;;;6.60;99.90;;;;;;5048126;28;20044;-77
2022/06/02 01:16:11;;;;;;;1999.90;999.90;;;6.50;99.90;;;;;;4969595;28;20654;-77
2022/06/02 01:18:55;;;;;;;1999.90;999.90;;;6.50;99.90;;;;;;5008660;28;20555;-77
2022/06/02 01:22:07;;;;;;;1999.90;999.90;;;6.50;99.90;;;;;;4972925;28;20059;-77
2022/06/02 01:24:51;;;;;;;1999.90;999.90;;;6.40;99.90;;;;;;4965469;28;20467;-77
2022/06/02 01:27:35;;;;;;;1999.90;999.90;;;6.40;99.90;;;;;;4964717;28;20064;-78
2022/06/02 01:30:40;;;;;;;1999.90;999.90;;;6.40;99.90;;;;;;4945573;28;20078;-77
2022/06/02 01:33:41;;;;;;;1999.90;999.90;;;6.40;99.90;;;;;;4957776;28;20058;-77
2022/06/02 01:36:06;;;;;;;1999.90;999.90;;;6.40;99.90;;;;;;4948169;28;20138;-77
2022/06/02 01:38:37;;;;;;;1999.90;999.90;;;6.40;99.90;;;;;;4968483;28;20145;-77
2022/06/02 01:41:18;;;;;;;1999.90;999.90;;;6.40;99.90;;;;;;4969319;28;20082;-77
2022/06/02 01:44:12;;;;;;;1999.90;999.90;;;6.40;99.90;;;;;;4952897;28;20038;-77
2022/06/02 01:46:46;;;;;;;1999.90;999.90;;;6.30;99.90;;;;;;4981759;28;20053;-77
2022/06/02 01:49:21;;;;;;;1999.90;999.90;;;6.30;99.90;;;;;;5040343;28;20499;-77
2022/06/02 01:52:28;;;;;;;1999.90;999.90;;;6.30;99.90;;;;;;5051980;28;20048;-77
2022/06/02 01:55:48;;;;;;;1999.90;999.90;;;6.40;99.90;;;;;;4978488;28;20136;-78
2022/06/02 01:58:46;;;;;;;1999.90;999.90;;;6.40;99.90;;;;;;4936726;28;20051;-77
2022/06/02 02:01:23;;;;;;;1999.90;999.90;;;6.40;99.90;;;;;;4991402;28;20130;-77
2022/06/02 02:04:10;;;;;;;1999.90;999.90;;;6.40;99.90;;;;;;5003566;28;20045;-77
2022/06/02 02:06:59;;;;;;;1999.90;999.90;;;6.50;99.90;;;;;;4992976;28;20050;-77
2022/06/02 02:09:47;;;;;;;1999.90;999.90;;;6.50;99.90;;;;;;4976836;28;20080;-78
2022/06/02 02:12:27;;;;;;;1999.90;999.90;;;6.50;99.90;;;;;;4995105;28;20046;-77
2022/06/02 02:15:04;;;;;;;1999.90;999.90;;;6.50;99.90;;;;;;4995438;28;20129;-77
2022/06/02 02:18:16;;;;;;;1999.90;999.90;;;6.60;99.90;;;;;;4994366;28;20527;-78
2022/06/02 02:20:53;;;;;;;1999.90;999.90;;;6.60;99.90;;;;;;4933359;28;20140;-77
2022/06/02 02:23:50;;;;;;;1999.90;999.90;;;6.60;99.90;;;;;;4993070;28;20133;-77
2022/06/02 02:26:26;;;;;;;1999.90;999.90;;;6.50;99.90;;;;;;4991024;28;20750;-77
2022/06/02 02:29:00;;;;;;;1999.90;999.90;;;6.50;99.90;;;;;;4979966;28;20061;-77
2022/06/02 02:31:25;;;;;;;1999.90;999.90;;;6.40;99.90;;;;;;5029751;28;20051;-77
2022/06/02 02:34:15;;;;;;;1999.90;999.90;;;6.40;99.90;;;;;;5077027;28;20028;-77
2022/06/02 02:37:19;;;;;;;1999.90;999.90;;;6.40;99.90;;;;;;5057050;28;20491;-77
2022/06/02 02:39:57;;;;;;;1999.90;999.90;;;6.30;99.90;;;;;;5068153;28;20079;-77
2022/06/02 02:43:04;;;;;;;1999.90;999.90;;;6.30;99.90;;;;;;5065869;28;20070;-77
2022/06/02 02:45:46;;;;;;;1999.90;999.90;;;6.20;99.90;;;;;;5049516;28;20039;-77
2022/06/02 02:48:18;;;;;;;1999.90;999.90;;;6.20;99.90;;;;;;5065016;28;20169;-77
2022/06/02 02:51:03;;;;;;;1999.90;999.90;;;6.20;99.90;;;;;;5067532;28;20033;-77
2022/06/02 02:53:34;;;;;;;1999.90;999.90;;;6.20;99.90;;;;;;5067574;28;20050;-77
2022/06/02 02:56:11;;;;;;;1999.90;999.90;;;6.20;99.90;;;;;;5065805;28;20043;-77
2022/06/02 02:59:15;;;;;;;1999.90;999.90;;;6.20;99.90;;;;;;5066100;28;20044;-77
2022/06/02 03:01:50;;;;;;;1999.90;999.90;;;6.30;99.90;;;;;;5013596;28;20486;-77
2022/06/02 03:04:50;;;;;;;1999.90;999.90;;;6.30;99.90;;;;;;5056015;28;20074;-77
2022/06/02 03:07:17;;;;;;;1999.90;999.90;;;6.40;99.90;;;;;;5044999;28;20193;-77
2022/06/02 03:09:57;;;;;;;1999.90;999.90;;;6.40;99.90;;;;;;5073704;28;20067;-77
2022/06/02 03:12:36;;;;;;;1999.90;999.90;;;6.40;99.90;;;;;;5069685;28;20033;-77
2022/06/02 03:15:04;;;;;;;1999.90;999.90;;;6.30;99.90;;;;;;5065221;28;20060;-77
2022/06/02 03:17:50;;;;;;;1999.90;999.90;;;6.30;99.90;;;;;;5048739;28;20433;-77
2022/06/02 03:20:34;;;;;;;1999.90;999.90;;;6.30;99.90;;;;;;5069961;28;20443;-77
2022/06/02 03:23:36;;;;;;;1999.90;999.90;;;6.30;99.90;;;;;;5055720;28;20051;-77
2022/06/02 03:26:22;;;;;;;1999.90;999.90;;;6.30;99.90;;;;;;5066989;28;20052;-77
2022/06/02 03:29:06;;;;;;;1999.90;999.90;;;6.30;99.90;;;;;;5058854;28;20054;-78
2022/06/02 03:31:31;;;;;;;;;;;6.30;99.90;;;;;;5071893;28;20493;-77
2022/06/02 03:34:22;;;;;;;1999.90;999.90;;;6.30;99.90;;;;;;5089815;28;19927;-77
2022/06/02 03:37:01;;;;;;;1999.90;999.90;;;6.30;99.90;;;;;;5071213;28;20071;-77
2022/06/02 03:39:44;;;;;;;1999.90;999.90;;;6.30;99.90;;;;;;5072161;28;20074;-78
2022/06/02 03:42:22;;;;;;;1999.90;999.90;;;6.20;99.90;;;;;;5050597;28;20099;-77
2022/06/02 03:44:56;;;;;;;1999.90;999.90;;;6.20;99.90;;;;;;5054912;28;20093;-77
2022/06/02 03:47:35;;;;;;;1999.90;999.90;;;6.20;99.90;;;;;;5067054;28;20127;-78
2022/06/02 03:50:29;;;;;;;1999.90;999.90;;;6.20;99.90;;;;;;5061858;28;20037;-77
2022/06/02 03:53:07;;;;;;;1999.90;999.90;;;6.20;99.90;;;;;;5067384;28;20059;-77
2022/06/02 03:55:51;;;;;;;1999.90;999.90;;;6.20;99.90;;;;;;5051570;28;20044;-78
2022/06/02 03:58:43;;;;;;;1999.90;999.90;;;6.30;99.90;;;;;;5067518;28;20567;-77
2022/06/02 04:01:15;;;;;;;1999.90;999.90;;;6.30;99.90;;;;;;5050026;28;20371;-77
2022/06/02 04:03:50;;;;;;;1999.90;999.90;;;6.40;99.90;;;;;;5060373;28;20043;-78
2022/06/02 04:06:37;;;;;;;1999.90;999.90;;;6.50;99.90;;;;;;5055947;28;20123;-77
2022/06/02 04:09:10;;;;;;;1999.90;999.90;;;6.50;99.90;;;;;;5063434;28;20421;-78
2022/06/02 04:15:17;;;;;;;1999.90;999.90;;;6.70;99.90;;;;;;5068035;28;20044;-77
2022/06/02 04:17:58;;;;;;;1999.90;999.90;;;6.90;99.90;;;;;;5035015;28;20048;-77
2022/06/02 04:20:35;;;;;;;1999.90;999.90;;;7.00;99.90;;;;;;5064458;28;20044;-77
2022/06/02 04:23:23;;;;;;;1999.90;999.90;;;7.10;99.90;;;;;;5066149;28;20040;-77
2022/06/02 04:25:55;;;;;;;1999.90;999.90;;;7.20;99.90;;;;;;5068759;28;20083;-77
2022/06/02 04:28:57;;;;;;;1999.90;999.90;;;7.30;99.90;;;;;;5056671;28;20383;-77
2022/06/02 04:31:31;;;;;;;1999.90;999.90;;;7.40;99.90;;;;;;5072316;28;20452;-78
2022/06/02 04:34:25;;;;;;;1999.90;999.90;;;7.40;99.90;;;;;;5067589;28;20394;-78
2022/06/02 04:37:10;;;;;;;1999.90;999.90;;;7.50;99.90;;;;;;5051228;28;20041;-78
2022/06/02 04:39:53;;;;;;;1999.90;999.90;;;7.60;99.90;;;;;;5064403;28;20374;-78
2022/06/02 04:42:50;;;;;;;1999.90;999.90;;;7.60;99.90;;;;;;5058467;28;20039;-78
2022/06/02 04:45:15;;;;;;;1999.90;999.90;;;7.60;99.90;;;;;;5048103;28;20086;-78
2022/06/02 04:48:10;;;;;;;1999.90;999.90;;;7.70;99.90;;;;;;5058114;28;20067;-78
2022/06/02 04:50:48;;;;;;;1999.90;999.90;;;7.80;99.90;;;;;;5046989;28;20044;-78
2022/06/02 04:53:25;;;;;;;1999.90;999.90;;;7.90;99.90;;;;;;5065249;28;20036;-78
2022/06/02 04:56:11;;;;;;;1999.90;999.90;;;8.00;99.90;;;;;;5060202;28;20046;-78
2022/06/02 04:58:56;;;;;;;1999.90;999.90;;;8.20;99.90;;;;;;5050713;28;20040;-78
2022/06/02 05:01:33;;;;;;;1999.90;999.90;;;8.30;99.90;;;;;;5063494;28;20051;-78
2022/06/02 05:04:08;;;;;;;1999.90;999.90;;;8.50;99.90;;;;;;5063155;28;20044;-78
2022/06/02 05:06:49;;;;;;;1999.90;999.90;;;8.60;99.90;;;;;;5051304;28;20063;-79
2022/06/02 05:09:15;;;;;;;1999.90;999.90;;;8.90;99.90;;;;;;5056296;28;20047;-78
2022/06/02 05:12:11;;;;;;;1999.90;999.90;;;9.60;99.90;;;;;;5070817;28;20036;-78
2022/06/02 05:14:53;;;;;;;1999.90;999.90;;;10.80;99.90;;;;;;5053957;28;20413;-78
2022/06/02 05:17:21;;;;;;;1999.90;999.90;;;12.20;99.90;;;;;;5049053;28;20056;-79
2022/06/02 05:20:13;;;;;;;1999.90;999.90;;;13.00;99.90;;;;;;5062641;28;20081;-79
2022/06/02 05:23:15;;;;;;;1999.90;999.90;;;13.30;99.90;;;;;;5068375;28;20044;-78
2022/06/02 05:25:52;;;;;;;1999.90;999.90;;;13.40;99.90;;;;;;5066063;28;20414;-79
2022/06/02 05:28:24;;;;;;;1999.90;999.90;;;13.00;99.90;;;;;;5070795;28;20032;-78
2022/06/02 05:31:27;;;;;;;1999.90;999.90;;;12.50;99.90;;;;;;5059953;28;20045;-78
2022/06/02 05:34:03;;;;;;;1999.90;999.90;;;12.20;99.90;;;;;;5063300;28;20075;-79
2022/06/02 05:36:42;;;;;;;1999.90;999.90;;;11.90;99.90;;;;;;5047706;28;20090;-78
2022/06/02 05:39:26;;;;;;;1999.90;999.90;;;11.80;99.90;;;;;;5047329;28;20044;-78
2022/06/02 05:42:22;;;;;;;1999.90;999.90;;;11.90;99.90;;;;;;5074012;28;20414;-79
2022/06/02 05:45:09;;;;;;;1999.90;999.90;;;11.90;99.90;;;;;;5070584;28;20614;-79
2022/06/02 05:48:07;;;;;;;1999.90;999.90;;;12.00;99.90;;;;;;5068915;28;20038;-79
2022/06/02 05:50:53;;;;;;;1999.90;999.90;;;12.10;99.90;;;;;;5048495;28;20079;-78
2022/06/02 05:53:38;;;;;;;1999.90;999.90;;;12.10;99.90;;;;;;5061684;28;20040;-79
2022/06/02 05:56:46;;;;;;;1999.90;999.90;;;12.20;99.90;;;;;;5050942;28;20036;-79
2022/06/02 05:59:23;;;;;;;1999.90;999.90;;;12.40;99.90;;;;;;5044091;28;20037;-78
2022/06/02 06:02:20;;;;;;;1999.90;999.90;;;12.50;99.90;;;;;;5076614;28;20489;-79
2022/06/02 06:05:04;;;;;;;1999.90;999.90;;;13.00;99.90;;;;;;5073346;28;20111;-79
2022/06/02 06:07:41;;;;;;;1999.90;999.90;;;14.00;99.90;;;;;;5072321;28;20040;-80
2022/06/02 06:10:34;;;;;;;1999.90;999.90;;;15.30;99.90;;;;;;5071226;28;20081;-80
2022/06/02 06:13:07;;;;;;;1999.90;999.90;;;16.30;99.90;;;;;;5030289;28;20047;-80
2022/06/02 06:15:32;;;;;;;;;;;16.90;99.90;;;;;;5071645;28;20127;-80
2022/06/02 06:18:26;;;;;;;1999.90;999.90;;;17.40;99.90;;;;;;5071910;28;19999;-80
2022/06/02 06:21:01;;;;;;;1999.90;999.90;;;17.90;99.90;;;;;;5053671;28;20047;-81
2022/06/02 06:23:36;;;;;;;1999.90;999.90;;;18.10;99.90;;;;;;5044215;28;20144;-80
2022/06/02 06:26:22;;;;;;;1999.90;999.90;;;18.10;99.90;;;;;;5047184;28;20039;-80
2022/06/02 06:29:11;;;;;;;1999.90;999.90;;;18.50;99.90;;;;;;5064411;28;20230;-80
2022/06/02 06:32:01;;;;;;;1999.90;999.90;;;19.10;99.90;;;;;;5067008;28;20128;-79
2022/06/02 06:34:37;;;;;;;1999.90;999.90;;;19.60;99.90;;;;;;5049504;28;20044;-80
2022/06/02 06:37:25;;;;;;;1999.90;999.90;;;19.80;99.90;;;;;;5068288;28;20044;-79
2022/06/02 06:40:32;;;;;;;1999.90;999.90;;;19.10;99.90;;;;;;5051460;28;20048;-80
2022/06/02 06:43:29;;;;;;;1999.90;999.90;;;19.00;99.90;;;;;;5062852;28;20560;-80
2022/06/02 06:46:09;;;;;;;1999.90;999.90;;;19.10;99.90;;;;;;5047145;28;20109;-80
2022/06/02 06:48:49;;;;;;;1999.90;999.90;;;18.70;99.90;;;;;;5049037;28;20109;-79
2022/06/02 06:51:26;;;;;;;1999.90;999.90;;;17.80;99.90;;;;;;5046030;28;20045;-79
2022/06/02 06:54:16;;;;;;;1999.90;999.90;;;17.20;99.90;;;;;;5057025;28;20075;-79
2022/06/02 06:56:58;;;;;;;1999.90;999.90;;;16.60;99.90;;;;;;5045752;28;20043;-79
2022/06/02 06:59:49;;;;;;;1999.90;999.90;;;16.10;99.90;;;;;;5064552;28;20930;-80
2022/06/02 07:02:36;;;;;;;1999.90;999.90;;;15.80;99.90;;;;;;5040849;28;20526;-80
2022/06/02 07:05:12;;;;;;;1999.90;999.90;;;15.30;99.90;;;;;;5041419;28;20048;-80
2022/06/02 07:08:21;;;;;;;1999.90;999.90;;;15.10;99.90;;;;;;5038329;28;20402;-80
2022/06/02 07:10:46;;;;;;;1999.90;999.90;;;16.20;99.90;;;;;;5011405;28;20053;-80
2022/06/02 07:13:26;;;;;;;1999.90;999.90;;;17.30;99.90;;;;;;5048473;28;20044;-79
2022/06/02 07:16:15;;;;;;;1999.90;999.90;;;18.10;99.90;;;;;;5068166;28;20040;-80
2022/06/02 07:18:52;;;;;;;1999.90;999.90;;;17.80;99.90;;;;;;5050068;28;20049;-80
2022/06/02 07:21:23;;;;;;;1999.90;999.90;;;17.20;99.90;;;;;;5087953;28;20406;-81
2022/06/02 07:24:04;;;;;;;1999.90;999.90;;;16.60;99.90;;;;;;5043887;28;20060;-80
2022/06/02 07:26:54;;;;;;;1999.90;999.90;;;16.10;99.90;;;;;;5055161;28;20052;-80
2022/06/02 07:29:43;;;;;;;1999.90;999.90;;;15.70;99.90;;;;;;5061638;28;20394;-81
2022/06/02 07:32:25;;;;;;;1999.90;999.90;;;16.00;99.90;;;;;;5046340;28;20069;-80
2022/06/02 07:35:28;;;;;;;1999.90;999.90;;;16.40;99.90;;;;;;5042028;28;20040;-80
2022/06/02 07:38:15;;;;;;;1999.90;999.90;;;17.10;99.90;;;;;;5047007;28;20051;-80
2022/06/02 07:40:55;;;;;;;1999.90;999.90;;;17.10;99.90;;;;;;5050458;28;20080;-80
2022/06/02 07:43:46;;;;;;;1999.90;999.90;;;16.80;99.90;;;;;;5064566;28;20044;-80
2022/06/02 07:46:16;;;;;;;1999.90;999.90;;;16.40;99.90;;;;;;5044626;28;20128;-80
2022/06/02 07:48:44;;;;;;;1999.90;999.90;;;16.20;99.90;;;;;;5066220;28;20131;-80
2022/06/02 07:51:22;;;;;;;1999.90;999.90;;;16.00;99.90;;;;;;5045949;28;20079;-79
2022/06/02 07:54:27;;;;;;;1999.90;999.90;;;15.90;99.90;;;;;;5063470;28;20047;-80
2022/06/02 07:57:00;;;;;;;1999.90;999.90;;;15.80;99.90;;;;;;5057842;28;20098;-80
2022/06/02 07:59:41;;;;;;;1999.90;999.90;;;15.80;99.90;;;;;;5056876;28;20406;-80
2022/06/02 08:02:44;;;;;;;1999.90;999.90;;;15.80;99.90;;;;;;5042251;28;20032;-80
2022/06/02 08:05:31;;;;;;;1999.90;999.90;;;16.10;99.90;;;;;;5050101;28;20161;-80
2022/06/02 08:08:10;;;;;;;1999.90;999.90;;;16.70;99.90;;;;;;5046244;28;20465;-80
2022/06/02 08:10:50;;;;;;;1999.90;999.90;;;16.90;99.90;;;;;;5047373;28;20271;-80
2022/06/02 08:13:22;;;;;;;1999.90;999.90;;;16.80;99.90;;;;;;5054436;28;20043;-80
2022/06/02 08:15:51;;;;;;;1999.90;999.90;;;16.60;99.90;;;;;;5044662;28;20037;-79
2022/06/02 08:18:25;;;;;;;1999.90;999.90;;;16.40;99.90;;;;;;5042816;28;20394;-80
2022/06/02 08:20:54;;;;;;;1999.90;999.90;;;16.70;99.90;;;;;;5055873;28;20086;-79
2022/06/02 08:23:53;;;;;;;1999.90;999.90;;;16.60;99.90;;;;;;5061323;28;20080;-81
2022/06/02 08:26:29;;;;;;;1999.90;999.90;;;16.30;99.90;;;;;;5065044;28;20118;-80
2022/06/02 08:29:03;;;;;;;1999.90;999.90;;;16.20;99.90;;;;;;5058209;28;20115;-79
2022/06/02 08:31:59;;;;;;;1999.90;999.90;;;17.00;99.90;;;;;;5054156;28;20077;-81
2022/06/02 08:35:07;;;;;;;1999.90;999.90;;;18.00;99.90;;;;;;5064704;28;20463;-80
2022/06/02 08:37:45;;;;;;;1999.90;999.90;;;17.90;99.90;;;;;;5002466;28;20043;-80
2022/06/02 08:40:49;;;;;;;1999.90;999.90;;;17.30;99.90;;;;;;5054826;28;20512;-80
2022/06/02 08:43:49;;;;;;;1999.90;999.90;;;16.90;99.90;;;;;;5042674;28;20417;-80
2022/06/02 08:46:40;;;;;;;1999.90;999.90;;;17.90;99.90;;;;;;5057214;28;20055;-80
2022/06/02 08:49:17;;;;;;;1999.90;999.90;;;18.90;99.90;;;;;;5054000;28;20393;-80
2022/06/02 08:52:07;;;;;;;1999.90;999.90;;;19.10;99.90;;;;;;5047705;28;20054;-80
2022/06/02 08:55:08;;;;;;;1999.90;999.90;;;18.90;99.90;;;;;;5074626;28;20055;-80
2022/06/02 08:58:07;;;;;;;1999.90;999.90;;;18.40;99.90;;;;;;4959503;28;20052;-80
2022/06/02 09:01:12;;;;;;;1999.90;999.90;;;18.70;99.90;;;;;;4966526;28;20081;-79
2022/06/02 09:03:54;;;;;;;1999.90;999.90;;;19.40;99.90;;;;;;4975594;28;20046;-80
2022/06/02 09:06:29;;;;;;;1999.90;999.90;;;20.00;99.90;;;;;;4970541;28;20058;-80
2022/06/02 09:09:16;;;;;;;1999.90;999.90;;;19.90;99.90;;;;;;4968726;28;20582;-79
2022/06/02 09:11:54;;;;;;;1999.90;999.90;;;19.40;99.90;;;;;;4986534;28;20432;-80
2022/06/02 09:15:06;;;;;;;1999.90;999.90;;;18.60;99.90;;;;;;4986417;28;20042;-81
2022/06/02 09:17:45;;;;;;;1999.90;999.90;;;18.10;99.90;;;;;;4966459;28;20046;-80
2022/06/02 09:20:40;;;;;;;1999.90;999.90;;;17.90;99.90;;;;;;4983486;28;20129;-80
2022/06/02 09:23:14;;;;;;;1999.90;999.90;;;17.90;99.90;;;;;;4959268;28;20054;-79
2022/06/02 09:26:13;;;;;;;1999.90;999.90;;;17.90;99.90;;;;;;4942328;28;20493;-80
2022/06/02 09:29:06;;;;;;;1999.90;999.90;;;18.00;99.90;;;;;;4953158;28;20558;-79
2022/06/02 09:31:55;;;;;;;;;;;18.90;99.90;;;;;;5004009;28;20196;-78
2022/06/02 09:34:26;;;;;;;1999.90;999.90;;;19.30;99.90;;;;;;5062865;28;20310;-80
2022/06/02 09:37:29;;;;;;;1999.90;999.90;;;19.90;99.90;;;;;;5072433;28;20123;-80
2022/06/02 09:40:09;;;;;;;;;;;20.70;99.90;;;;;;5070967;28;20039;-80
2022/06/02 09:42:47;;;;;;;1999.90;999.90;;;20.60;99.90;;;;;;5099003;28;19926;-79
2022/06/02 09:45:13;;;;;;;1999.90;999.90;;;20.00;99.90;;;;;;5046003;28;20421;-79
2022/06/02 09:47:41;;;;;;;1999.90;999.90;;;19.40;99.90;;;;;;5053578;28;20056;-80
2022/06/02 09:50:28;;;;;;;1999.90;999.90;;;18.80;99.90;;;;;;5067303;28;20497;-80
2022/06/02 09:53:13;;;;;;;1999.90;999.90;;;19.00;99.90;;;;;;5065862;28;20036;-80
2022/06/02 09:56:07;;;;;;;1999.90;999.90;;;19.50;99.90;;;;;;5061501;28;20114;-79
2022/06/02 09:58:51;;;;;;;1999.90;999.90;;;19.70;99.90;;;;;;5047877;28;20123;-80
2022/06/02 10:01:53;;;;;;;1999.90;999.90;;;19.90;99.90;;;;;;5065638;28;20047;-80
2022/06/02 10:04:37;;;;;;;1999.90;999.90;;;20.10;99.90;;;;;;5041917;28;20133;-79
2022/06/02 10:07:24;;;;;;;1999.90;999.90;;;20.40;99.90;;;;;;5050680;28;20077;-80
2022/06/02 10:10:16;;;;;;;1999.90;999.90;;;20.00;99.90;;;;;;5054856;28;20405;-80
2022/06/02 10:13:09;;;;;;;1999.90;999.90;;;19.50;99.90;;;;;;5063449;28;20048;-80
2022/06/02 10:15:41;;;;;;;1999.90;999.90;;;19.30;99.90;;;;;;5061844;28;20037;-80
2022/06/02 10:18:26;;;;;;;1999.90;999.90;;;18.90;99.90;;;;;;5043709;28;20545;-79
2022/06/02 10:21:04;;;;;;;1999.90;999.90;;;18.50;99.90;;;;;;5067750;28;20405;-79
2022/06/02 10:23:39;;;;;;;1999.90;999.90;;;18.60;99.90;;;;;;5062544;28;20147;-79
2022/06/02 10:26:23;;;;;;;1999.90;999.90;;;19.00;99.90;;;;;;5062233;28;20505;-79
2022/06/02 10:29:08;;;;;;;1999.90;999.90;;;19.60;99.90;;;;;;5044894;28;20041;-78
2022/06/02 10:32:05;;;;;;;1999.90;999.90;;;19.70;99.50;;;;;;5063583;28;20040;-80
2022/06/02 10:34:44;;;;;;;1999.90;999.90;;;19.30;99.90;;;;;;4997762;28;20045;-79
2022/06/02 10:37:36;;;;;;;1999.90;999.90;;;18.90;99.90;;;;;;5067393;28;20086;-80
2022/06/02 10:40:15;;;;;;;1999.90;999.90;;;18.50;99.90;;;;;;5056687;28;20041;-78
2022/06/02 10:43:00;;;;;;;1999.90;999.90;;;18.70;99.90;;;;;;5066136;28;20049;-79
2022/06/02 10:45:58;;;;;;;1999.90;999.90;;;19.20;99.90;;;;;;5060427;28;20078;-79
2022/06/02 10:49:03;;;;;;;1999.90;999.90;;;19.80;99.90;;;;;;5041165;28;20459;-79
2022/06/02 10:51:34;;;;;;;1999.90;999.90;;;20.30;99.90;;;;;;5035212;28;20055;-79
2022/06/02 10:54:57;;;;;;;1999.90;999.90;;;20.40;99.90;;;;;;5053536;28;20394;-79
2022/06/02 10:57:59;;;;;;;1999.90;999.90;;;20.70;99.90;;;;;;4952564;28;20113;-80
2022/06/02 11:00:57;;;;;;;1999.90;999.90;;;21.20;99.90;;;;;;4954617;28;20062;-79
2022/06/02 11:03:38;;;;;;;1999.90;999.90;;;20.90;99.30;;;;;;4969029;28;20064;-79
2022/06/02 11:06:40;;;;;;;1999.90;999.90;;;20.30;98.40;;;;;;4971363;28;20066;-78
2022/06/02 11:09:31;;;;;;;1999.90;999.90;;;19.60;97.00;;;;;;4971225;28;20065;-79
2022/06/02 11:12:06;;;;;;;1999.90;999.90;;;19.50;99.70;;;;;;4949363;28;20042;-80
2022/06/02 11:15:06;;;;;;;1999.90;999.90;;;19.90;98.80;;;;;;4989897;28;20133;-79
2022/06/02 11:18:06;;;;;;;1999.90;999.90;;;20.10;99.20;;;;;;4969828;28;20132;-80
2022/06/02 11:20:46;;;;;;;1999.90;999.90;;;19.70;96.40;;;;;;4967023;28;20431;-79
2022/06/02 11:23:40;;;;;;;1999.90;999.90;;;19.30;99.90;;;;;;4971594;28;20064;-79
2022/06/02 11:26:18;;;;;;;1999.90;999.90;;;19.00;98.20;;;;;;4948068;28;20206;-79
2022/06/02 11:28:49;;;;;;;1999.90;999.90;;;18.80;99.90;;;;;;5030926;28;20076;-79
2022/06/02 11:31:30;;;;;;;1999.90;999.90;;;18.70;99.90;;;;;;5051682;28;20036;-79
2022/06/02 11:34:26;;;;;;;1999.90;999.90;;;18.90;99.90;;;;;;5059226;28;20051;-79
2022/06/02 11:37:07;;;;;;;1999.90;999.90;;;19.50;99.90;;;;;;5045583;28;20110;-79
2022/06/02 11:39:58;;;;;;;1999.90;999.90;;;20.10;99.90;;;;;;5046090;28;20032;-79
2022/06/02 11:42:29;;;;;;;1999.90;999.90;;;20.20;99.10;;;;;;5040922;28;20041;-79
2022/06/02 11:45:17;;;;;;;1999.90;999.90;;;19.80;98.10;;;;;;5061713;28;20048;-79
2022/06/02 11:48:11;;;;;;;1999.90;999.90;;;19.60;99.90;;;;;;5059020;28;20124;-79
2022/06/02 11:50:49;;;;;;;1999.90;999.90;;;20.00;99.90;;;;;;5049128;28;20032;-79
2022/06/02 11:53:36;;;;;;;1999.90;999.90;;;20.10;99.90;;;;;;5061294;28;20072;-79
2022/06/02 11:56:13;;;;;;;1999.90;999.90;;;20.00;99.90;;;;;;5057926;28;20116;-80
2022/06/02 11:59:08;;;;;;;1999.90;999.90;;;19.60;99.90;;;;;;5057781;28;20055;-79
2022/06/02 12:02:02;;;;;;;1999.90;999.90;;;19.50;99.90;;;;;;5053979;28;20507;-80
2022/06/02 12:04:59;;;;;;;1999.90;999.90;;;19.80;99.90;;;;;;5063744;28;20044;-78
2022/06/02 12:07:49;;;;;;;1999.90;999.90;;;20.20;99.90;;;;;;5055905;28;20477;-79
2022/06/02 12:10:39;;;;;;;1999.90;999.90;;;20.50;99.90;;;;;;5037191;28;20387;-79
2022/06/02 12:13:12;;;;;;;1999.90;999.90;;;20.90;98.90;;;;;;5062162;28;20574;-79
2022/06/02 12:15:57;;;;;;;1999.90;999.90;;;20.90;99.10;;;;;;5046208;28;20043;-79
2022/06/02 12:18:30;;;;;;;1999.90;999.90;;;20.80;99.90;;;;;;5044670;28;20040;-78
2022/06/02 12:21:07;;;;;;;1999.90;999.90;;;20.80;99.90;;;;;;5037301;28;20087;-79
2022/06/02 12:24:05;;;;;;;1999.90;999.90;;;21.00;99.90;;;;;;5047510;28;20425;-79
2022/06/02 12:26:50;;;;;;;1999.90;999.90;;;20.70;99.00;;;;;;5043688;28;20516;-78
2022/06/02 12:29:39;;;;;;;1999.90;999.90;;;20.40;99.40;;;;;;5062657;28;20040;-80
2022/06/02 12:32:05;;;;;;;1999.90;999.90;;;20.40;99.40;;;;;;5048455;28;20510;-78
2022/06/02 12:34:49;;;;;;;1999.90;999.90;;;20.50;98.30;;;;;;5042598;28;20067;-80
2022/06/02 12:37:38;;;;;;;1999.90;999.90;;;20.70;99.60;;;;;;5065452;28;20044;-79
2022/06/02 12:40:25;;;;;;;1999.90;999.90;;;20.90;98.00;;;;;;5059421;28;20047;-79
2022/06/02 12:43:29;;;;;;;1999.90;999.90;;;21.10;99.90;;;;;;5059408;28;20086;-79
2022/06/02 12:45:57;;;;;;;;;;;21.50;99.20;;;;;;5047588;28;20113;-79
2022/06/02 12:49:01;;;;;;;1999.90;999.90;;;21.70;99.20;;;;;;5060763;28;19943;-79
2022/06/02 12:51:56;;;;;;;1999.90;999.90;;;21.80;96.00;;;;;;4990285;28;20044;-79
2022/06/02 12:54:51;;;;;;;1999.90;999.90;;;22.00;96.40;;;;;;5053397;28;20041;-78
2022/06/02 12:57:42;;;;;;;1999.90;999.90;;;22.20;96.70;;;;;;5037613;28;20345;-79
2022/06/02 13:00:33;;;;;;;1999.90;999.90;;;22.10;95.30;;;;;;5060289;28;20043;-78
2022/06/02 13:03:07;;;;;;;1999.90;999.90;;;21.90;92.30;;;;;;5040101;28;20058;-79
2022/06/02 13:05:48;;;;;;;1999.90;999.90;;;21.80;95.10;;;;;;5065703;28;20059;-78
2022/06/02 13:08:35;;;;;;;1999.90;999.90;;;21.30;94.60;;;;;;5046184;28;20041;-79
2022/06/02 13:11:26;;;;;;;1999.90;999.90;;;21.00;96.00;;;;;;5065853;28;20047;-79
2022/06/02 13:14:02;;;;;;;1999.90;999.90;;;21.10;96.10;;;;;;5065740;28;20036;-79
2022/06/02 13:16:49;;;;;;;1999.90;999.90;;;21.50;94.80;;;;;;5067471;28;20086;-79
2022/06/02 13:19:49;;;;;;;1999.90;999.90;;;22.00;94.80;;;;;;5063716;28;20052;-79
2022/06/02 13:22:51;;;;;;;1999.90;999.90;;;22.50;94.00;;;;;;5061730;28;20076;-79
2022/06/02 13:25:53;;;;;;;1999.90;999.90;;;22.90;93.30;;;;;;5069452;28;20074;-78
2022/06/02 13:28:55;;;;;;;1999.90;999.90;;;23.10;96.90;;;;;;5052183;28;20039;-79
2022/06/02 13:31:58;;;;;;;1999.90;999.90;;;23.10;93.50;;;;;;5062209;28;20044;-78
2022/06/02 13:34:24;;;;;;;1999.90;999.90;;;23.00;93.90;;;;;;5045756;28;20068;-79
2022/06/02 13:37:26;;;;;;;1999.90;999.90;;;22.80;93.30;;;;;;5064173;28;20469;-79